sensor_id;sensor_type;location;lat;lon;timestamp;P1;durP1;ratioP1;P2;durP2;ratioP2
32734;SDS011;19112;51.076;3.706;2023-05-08T00:00:27;91.10;;;46.60;;
32734;SDS011;19112;51.076;3.706;2023-05-08T00:02:52;96.95;;;46.55;;
32734;SDS011;19112;51.076;3.706;2023-05-08T00:05:18;89.47;;;45.30;;
32734;SDS011;19112;51.076;3.706;2023-05-08T00:07:44;95.10;;;45.38;;
32734;SDS011;19112;51.076;3.706;2023-05-08T00:10:10;89.05;;;46.58;;
32734;SDS011;19112;51.076;3.706;2023-05-08T00:12:36;95.82;;;45.78;;
32734;SDS011;19112;51.076;3.706;2023-05-08T00:15:03;88.75;;;46.50;;
32734;SDS011;19112;51.076;3.706;2023-05-08T00:17:30;94.32;;;48.92;;
32734;SDS011;19112;51.076;3.706;2023-05-08T00:19:56;100.85;;;49.83;;
32734;SDS011;19112;51.076;3.706;2023-05-08T00:22:22;106.78;;;48.60;;
32734;SDS011;19112;51.076;3.706;2023-05-08T00:24:48;101.00;;;46.83;;
32734;SDS011;19112;51.076;3.706;2023-05-08T00:27:13;90.90;;;46.15;;
32734;SDS011;19112;51.076;3.706;2023-05-08T00:29:39;99.38;;;49.25;;
32734;SDS011;19112;51.076;3.706;2023-05-08T00:32:06;96.22;;;47.97;;
32734;SDS011;19112;51.076;3.706;2023-05-08T00:34:32;95.40;;;47.78;;
32734;SDS011;19112;51.076;3.706;2023-05-08T00:36:59;101.65;;;48.63;;
32734;SDS011;19112;51.076;3.706;2023-05-08T00:39:25;100.00;;;49.38;;
32734;SDS011;19112;51.076;3.706;2023-05-08T00:41:50;96.30;;;48.00;;
32734;SDS011;19112;51.076;3.706;2023-05-08T00:44:16;92.20;;;49.08;;
32734;SDS011;19112;51.076;3.706;2023-05-08T00:46:43;94.57;;;47.65;;
32734;SDS011;19112;51.076;3.706;2023-05-08T00:49:10;102.47;;;51.53;;
32734;SDS011;19112;51.076;3.706;2023-05-08T00:51:39;96.13;;;49.60;;
32734;SDS011;19112;51.076;3.706;2023-05-08T00:54:07;97.68;;;49.35;;
32734;SDS011;19112;51.076;3.706;2023-05-08T00:56:33;105.70;;;52.67;;
32734;SDS011;19112;51.076;3.706;2023-05-08T00:59:01;93.55;;;49.30;;
32734;SDS011;19112;51.076;3.706;2023-05-08T01:01:31;91.80;;;49.22;;
32734;SDS011;19112;51.076;3.706;2023-05-08T01:04:01;104.45;;;49.65;;
32734;SDS011;19112;51.076;3.706;2023-05-08T01:06:28;102.47;;;49.45;;
32734;SDS011;19112;51.076;3.706;2023-05-08T01:08:54;107.00;;;50.00;;
32734;SDS011;19112;51.076;3.706;2023-05-08T01:14:11;97.47;;;45.63;;
32734;SDS011;19112;51.076;3.706;2023-05-08T01:25:51;103.32;;;46.70;;
32734;SDS011;19112;51.076;3.706;2023-05-08T01:31:23;94.15;;;46.70;;
32734;SDS011;19112;51.076;3.706;2023-05-08T01:34:16;117.07;;;45.97;;
32734;SDS011;19112;51.076;3.706;2023-05-08T01:36:50;114.78;;;48.70;;
32734;SDS011;19112;51.076;3.706;2023-05-08T01:39:50;103.43;;;46.22;;
32734;SDS011;19112;51.076;3.706;2023-05-08T01:45:25;145.50;;;49.00;;
32734;SDS011;19112;51.076;3.706;2023-05-08T01:48:07;94.53;;;47.13;;
32734;SDS011;19112;51.076;3.706;2023-05-08T01:50:47;105.10;;;47.25;;
32734;SDS011;19112;51.076;3.706;2023-05-08T01:53:25;124.32;;;45.42;;
32734;SDS011;19112;51.076;3.706;2023-05-08T01:55:57;116.25;;;44.65;;
32734;SDS011;19112;51.076;3.706;2023-05-08T01:58:27;92.97;;;42.83;;
32734;SDS011;19112;51.076;3.706;2023-05-08T02:00:57;88.32;;;42.90;;
32734;SDS011;19112;51.076;3.706;2023-05-08T02:03:26;175.23;;;39.47;;
32734;SDS011;19112;51.076;3.706;2023-05-08T02:05:53;158.65;;;40.40;;
32734;SDS011;19112;51.076;3.706;2023-05-08T02:08:21;95.45;;;33.80;;
32734;SDS011;19112;51.076;3.706;2023-05-08T02:10:49;139.02;;;35.72;;
32734;SDS011;19112;51.076;3.706;2023-05-08T02:13:18;105.93;;;35.15;;
32734;SDS011;19112;51.076;3.706;2023-05-08T02:15:46;219.60;;;40.35;;
32734;SDS011;19112;51.076;3.706;2023-05-08T02:18:13;76.93;;;34.13;;
32734;SDS011;19112;51.076;3.706;2023-05-08T02:20:42;176.48;;;38.47;;
32734;SDS011;19112;51.076;3.706;2023-05-08T02:23:09;117.55;;;35.13;;
32734;SDS011;19112;51.076;3.706;2023-05-08T02:25:36;84.05;;;33.30;;
32734;SDS011;19112;51.076;3.706;2023-05-08T02:28:03;79.13;;;35.15;;
32734;SDS011;19112;51.076;3.706;2023-05-08T02:30:31;95.15;;;34.10;;
32734;SDS011;19112;51.076;3.706;2023-05-08T02:32:58;87.68;;;34.05;;
32734;SDS011;19112;51.076;3.706;2023-05-08T02:35:28;90.32;;;35.47;;
32734;SDS011;19112;51.076;3.706;2023-05-08T02:37:56;76.57;;;33.55;;
32734;SDS011;19112;51.076;3.706;2023-05-08T02:40:23;165.85;;;36.10;;
32734;SDS011;19112;51.076;3.706;2023-05-08T02:42:53;177.48;;;36.90;;
32734;SDS011;19112;51.076;3.706;2023-05-08T02:45:19;91.95;;;32.67;;
32734;SDS011;19112;51.076;3.706;2023-05-08T02:51:03;188.85;;;34.53;;
32734;SDS011;19112;51.076;3.706;2023-05-08T02:54:14;232.00;;;33.78;;
32734;SDS011;19112;51.076;3.706;2023-05-08T02:59:57;319.42;;;36.58;;
32734;SDS011;19112;51.076;3.706;2023-05-08T03:02:42;304.23;;;38.92;;
32734;SDS011;19112;51.076;3.706;2023-05-08T03:05:19;128.70;;;32.00;;
32734;SDS011;19112;51.076;3.706;2023-05-08T03:07:54;136.43;;;30.73;;
32734;SDS011;19112;51.076;3.706;2023-05-08T03:10:34;134.95;;;33.10;;
32734;SDS011;19112;51.076;3.706;2023-05-08T03:13:04;150.85;;;31.83;;
32734;SDS011;19112;51.076;3.706;2023-05-08T03:15:55;243.80;;;34.78;;
32734;SDS011;19112;51.076;3.706;2023-05-08T03:18:24;81.43;;;29.30;;
32734;SDS011;19112;51.076;3.706;2023-05-08T03:20:58;182.57;;;33.88;;
32734;SDS011;19112;51.076;3.706;2023-05-08T03:23:26;99.18;;;28.45;;
32734;SDS011;19112;51.076;3.706;2023-05-08T03:25:54;81.50;;;27.08;;
32734;SDS011;19112;51.076;3.706;2023-05-08T03:28:23;118.15;;;27.85;;
32734;SDS011;19112;51.076;3.706;2023-05-08T03:30:50;110.72;;;27.42;;
32734;SDS011;19112;51.076;3.706;2023-05-08T03:33:16;199.60;;;32.58;;
32734;SDS011;19112;51.076;3.706;2023-05-08T03:35:45;102.22;;;29.50;;
32734;SDS011;19112;51.076;3.706;2023-05-08T03:38:12;93.88;;;28.15;;
32734;SDS011;19112;51.076;3.706;2023-05-08T03:40:38;214.93;;;31.65;;
32734;SDS011;19112;51.076;3.706;2023-05-08T03:43:06;86.78;;;25.27;;
32734;SDS011;19112;51.076;3.706;2023-05-08T03:45:36;71.05;;;24.90;;
32734;SDS011;19112;51.076;3.706;2023-05-08T03:48:05;177.98;;;29.60;;
32734;SDS011;19112;51.076;3.706;2023-05-08T03:50:33;115.75;;;26.90;;
32734;SDS011;19112;51.076;3.706;2023-05-08T03:53:01;110.15;;;26.92;;
32734;SDS011;19112;51.076;3.706;2023-05-08T03:55:28;90.18;;;24.75;;
32734;SDS011;19112;51.076;3.706;2023-05-08T04:00:44;85.03;;;27.00;;
32734;SDS011;19112;51.076;3.706;2023-05-08T04:09:29;94.45;;;22.55;;
32734;SDS011;19112;51.076;3.706;2023-05-08T04:12:17;71.97;;;23.42;;
32734;SDS011;19112;51.076;3.706;2023-05-08T04:15:03;62.15;;;20.35;;
32734;SDS011;19112;51.076;3.706;2023-05-08T04:18:23;60.03;;;21.00;;
32734;SDS011;19112;51.076;3.706;2023-05-08T04:20:34;58.30;;;20.98;;
32734;SDS011;19112;51.076;3.706;2023-05-08T04:23:06;92.75;;;23.02;;
32734;SDS011;19112;51.076;3.706;2023-05-08T04:25:36;69.45;;;21.92;;
32734;SDS011;19112;51.076;3.706;2023-05-08T04:28:03;69.13;;;22.55;;
32734;SDS011;19112;51.076;3.706;2023-05-08T04:30:30;59.53;;;21.15;;
32734;SDS011;19112;51.076;3.706;2023-05-08T04:32:56;55.47;;;21.42;;
32734;SDS011;19112;51.076;3.706;2023-05-08T04:35:23;64.28;;;20.98;;
32734;SDS011;19112;51.076;3.706;2023-05-08T04:37:49;61.33;;;21.60;;
32734;SDS011;19112;51.076;3.706;2023-05-08T04:40:15;58.15;;;21.33;;
32734;SDS011;19112;51.076;3.706;2023-05-08T04:42:41;58.15;;;22.35;;
32734;SDS011;19112;51.076;3.706;2023-05-08T04:45:07;52.30;;;20.40;;
32734;SDS011;19112;51.076;3.706;2023-05-08T04:47:34;59.60;;;21.70;;
32734;SDS011;19112;51.076;3.706;2023-05-08T04:50:00;43.72;;;19.58;;
32734;SDS011;19112;51.076;3.706;2023-05-08T04:52:26;48.65;;;20.25;;
32734;SDS011;19112;51.076;3.706;2023-05-08T04:54:52;43.75;;;19.05;;
32734;SDS011;19112;51.076;3.706;2023-05-08T04:57:18;48.42;;;20.55;;
32734;SDS011;19112;51.076;3.706;2023-05-08T04:59:44;43.42;;;19.38;;
32734;SDS011;19112;51.076;3.706;2023-05-08T05:02:10;46.88;;;19.27;;
32734;SDS011;19112;51.076;3.706;2023-05-08T05:04:35;52.97;;;22.42;;
32734;SDS011;19112;51.076;3.706;2023-05-08T05:07:02;50.13;;;21.23;;
32734;SDS011;19112;51.076;3.706;2023-05-08T05:09:28;49.33;;;20.45;;
32734;SDS011;19112;51.076;3.706;2023-05-08T05:11:54;49.15;;;19.75;;
32734;SDS011;19112;51.076;3.706;2023-05-08T05:14:20;47.75;;;20.13;;
32734;SDS011;19112;51.076;3.706;2023-05-08T05:16:46;42.35;;;19.58;;
32734;SDS011;19112;51.076;3.706;2023-05-08T05:19:12;49.85;;;19.58;;
32734;SDS011;19112;51.076;3.706;2023-05-08T05:21:38;45.97;;;19.88;;
32734;SDS011;19112;51.076;3.706;2023-05-08T05:24:04;43.50;;;18.90;;
32734;SDS011;19112;51.076;3.706;2023-05-08T05:26:31;52.33;;;19.58;;
32734;SDS011;19112;51.076;3.706;2023-05-08T05:28:56;47.97;;;18.33;;
32734;SDS011;19112;51.076;3.706;2023-05-08T05:31:22;52.30;;;19.33;;
32734;SDS011;19112;51.076;3.706;2023-05-08T05:33:48;40.20;;;19.60;;
32734;SDS011;19112;51.076;3.706;2023-05-08T05:36:14;46.97;;;20.52;;
32734;SDS011;19112;51.076;3.706;2023-05-08T05:38:40;41.95;;;18.27;;
32734;SDS011;19112;51.076;3.706;2023-05-08T05:41:06;41.05;;;18.67;;
32734;SDS011;19112;51.076;3.706;2023-05-08T05:43:32;42.22;;;19.63;;
32734;SDS011;19112;51.076;3.706;2023-05-08T05:46:07;41.67;;;19.40;;
32734;SDS011;19112;51.076;3.706;2023-05-08T05:48:33;44.92;;;20.58;;
32734;SDS011;19112;51.076;3.706;2023-05-08T05:51:00;39.78;;;19.10;;
32734;SDS011;19112;51.076;3.706;2023-05-08T05:53:26;40.63;;;19.70;;
32734;SDS011;19112;51.076;3.706;2023-05-08T05:55:52;43.25;;;19.50;;
32734;SDS011;19112;51.076;3.706;2023-05-08T05:58:18;45.58;;;19.33;;
32734;SDS011;19112;51.076;3.706;2023-05-08T06:00:44;46.85;;;21.08;;
32734;SDS011;19112;51.076;3.706;2023-05-08T06:03:11;50.10;;;19.75;;
32734;SDS011;19112;51.076;3.706;2023-05-08T06:05:38;46.72;;;20.35;;
32734;SDS011;19112;51.076;3.706;2023-05-08T06:08:05;49.63;;;21.95;;
32734;SDS011;19112;51.076;3.706;2023-05-08T06:10:32;48.80;;;21.40;;
32734;SDS011;19112;51.076;3.706;2023-05-08T06:12:58;53.42;;;21.80;;
32734;SDS011;19112;51.076;3.706;2023-05-08T06:15:24;43.65;;;19.75;;
32734;SDS011;19112;51.076;3.706;2023-05-08T06:17:50;46.97;;;20.83;;
32734;SDS011;19112;51.076;3.706;2023-05-08T06:20:17;49.88;;;22.67;;
32734;SDS011;19112;51.076;3.706;2023-05-08T06:22:43;49.95;;;22.25;;
32734;SDS011;19112;51.076;3.706;2023-05-08T06:25:09;50.90;;;21.75;;
32734;SDS011;19112;51.076;3.706;2023-05-08T06:27:35;51.53;;;23.92;;
32734;SDS011;19112;51.076;3.706;2023-05-08T06:30:01;53.50;;;24.25;;
32734;SDS011;19112;51.076;3.706;2023-05-08T06:32:31;59.35;;;25.52;;
32734;SDS011;19112;51.076;3.706;2023-05-08T06:34:57;58.00;;;23.63;;
32734;SDS011;19112;51.076;3.706;2023-05-08T06:37:23;59.03;;;25.23;;
32734;SDS011;19112;51.076;3.706;2023-05-08T06:39:49;56.95;;;26.02;;
32734;SDS011;19112;51.076;3.706;2023-05-08T06:42:15;65.43;;;25.52;;
32734;SDS011;19112;51.076;3.706;2023-05-08T06:44:40;60.65;;;25.85;;
32734;SDS011;19112;51.076;3.706;2023-05-08T06:47:06;61.30;;;25.13;;
32734;SDS011;19112;51.076;3.706;2023-05-08T06:49:34;62.10;;;26.13;;
32734;SDS011;19112;51.076;3.706;2023-05-08T06:52:00;55.80;;;24.55;;
32734;SDS011;19112;51.076;3.706;2023-05-08T06:54:26;69.10;;;27.70;;
32734;SDS011;19112;51.076;3.706;2023-05-08T06:56:52;68.72;;;27.30;;
32734;SDS011;19112;51.076;3.706;2023-05-08T06:59:19;74.15;;;28.65;;
32734;SDS011;19112;51.076;3.706;2023-05-08T07:01:45;73.97;;;28.83;;
32734;SDS011;19112;51.076;3.706;2023-05-08T07:04:11;82.90;;;31.80;;
32734;SDS011;19112;51.076;3.706;2023-05-08T07:06:37;70.55;;;28.42;;
32734;SDS011;19112;51.076;3.706;2023-05-08T07:09:03;69.63;;;28.35;;
32734;SDS011;19112;51.076;3.706;2023-05-08T07:11:29;75.35;;;30.15;;
32734;SDS011;19112;51.076;3.706;2023-05-08T07:13:55;68.65;;;29.80;;
32734;SDS011;19112;51.076;3.706;2023-05-08T07:16:21;68.40;;;28.75;;
32734;SDS011;19112;51.076;3.706;2023-05-08T07:18:47;61.75;;;27.40;;
32734;SDS011;19112;51.076;3.706;2023-05-08T07:21:13;53.47;;;24.30;;
32734;SDS011;19112;51.076;3.706;2023-05-08T07:23:39;55.63;;;24.27;;
32734;SDS011;19112;51.076;3.706;2023-05-08T07:26:05;55.55;;;23.52;;
32734;SDS011;19112;51.076;3.706;2023-05-08T07:28:32;48.22;;;23.63;;
32734;SDS011;19112;51.076;3.706;2023-05-08T07:30:58;45.13;;;20.83;;
32734;SDS011;19112;51.076;3.706;2023-05-08T07:33:24;44.92;;;20.27;;
32734;SDS011;19112;51.076;3.706;2023-05-08T07:35:50;45.90;;;22.00;;
32734;SDS011;19112;51.076;3.706;2023-05-08T07:38:16;48.78;;;22.48;;
32734;SDS011;19112;51.076;3.706;2023-05-08T07:40:42;56.42;;;22.00;;
32734;SDS011;19112;51.076;3.706;2023-05-08T07:43:08;48.58;;;21.92;;
32734;SDS011;19112;51.076;3.706;2023-05-08T07:45:34;53.75;;;23.85;;
32734;SDS011;19112;51.076;3.706;2023-05-08T07:48:00;51.30;;;23.30;;
32734;SDS011;19112;51.076;3.706;2023-05-08T07:50:26;50.95;;;23.55;;
32734;SDS011;19112;51.076;3.706;2023-05-08T07:52:52;50.50;;;22.30;;
32734;SDS011;19112;51.076;3.706;2023-05-08T07:55:18;43.90;;;21.23;;
32734;SDS011;19112;51.076;3.706;2023-05-08T07:57:44;42.38;;;20.00;;
32734;SDS011;19112;51.076;3.706;2023-05-08T08:00:11;44.40;;;20.33;;
32734;SDS011;19112;51.076;3.706;2023-05-08T08:02:39;39.05;;;18.85;;
32734;SDS011;19112;51.076;3.706;2023-05-08T08:05:06;39.70;;;18.83;;
32734;SDS011;19112;51.076;3.706;2023-05-08T08:07:33;44.65;;;20.48;;
32734;SDS011;19112;51.076;3.706;2023-05-08T08:09:59;38.25;;;18.30;;
32734;SDS011;19112;51.076;3.706;2023-05-08T08:12:26;39.65;;;18.20;;
32734;SDS011;19112;51.076;3.706;2023-05-08T08:14:52;35.03;;;16.00;;
32734;SDS011;19112;51.076;3.706;2023-05-08T08:17:19;32.63;;;15.88;;
32734;SDS011;19112;51.076;3.706;2023-05-08T08:19:45;29.90;;;14.93;;
32734;SDS011;19112;51.076;3.706;2023-05-08T08:22:11;29.80;;;13.05;;
32734;SDS011;19112;51.076;3.706;2023-05-08T08:24:37;30.42;;;14.45;;
32734;SDS011;19112;51.076;3.706;2023-05-08T08:27:02;28.45;;;14.57;;
32734;SDS011;19112;51.076;3.706;2023-05-08T08:29:29;28.70;;;13.43;;
32734;SDS011;19112;51.076;3.706;2023-05-08T08:31:55;28.58;;;12.85;;
32734;SDS011;19112;51.076;3.706;2023-05-08T08:34:21;26.38;;;12.65;;
32734;SDS011;19112;51.076;3.706;2023-05-08T08:36:47;25.17;;;12.10;;
32734;SDS011;19112;51.076;3.706;2023-05-08T08:39:13;26.00;;;11.73;;
32734;SDS011;19112;51.076;3.706;2023-05-08T08:41:39;24.77;;;12.00;;
32734;SDS011;19112;51.076;3.706;2023-05-08T08:44:05;24.85;;;11.05;;
32734;SDS011;19112;51.076;3.706;2023-05-08T08:46:31;23.85;;;11.65;;
32734;SDS011;19112;51.076;3.706;2023-05-08T08:48:57;26.10;;;12.05;;
32734;SDS011;19112;51.076;3.706;2023-05-08T08:51:29;22.95;;;11.60;;
32734;SDS011;19112;51.076;3.706;2023-05-08T08:54:06;25.73;;;11.43;;
32734;SDS011;19112;51.076;3.706;2023-05-08T08:56:38;23.27;;;11.80;;
32734;SDS011;19112;51.076;3.706;2023-05-08T08:59:07;24.63;;;11.95;;
32734;SDS011;19112;51.076;3.706;2023-05-08T09:01:34;23.75;;;11.18;;
32734;SDS011;19112;51.076;3.706;2023-05-08T09:04:02;23.25;;;11.80;;
32734;SDS011;19112;51.076;3.706;2023-05-08T09:06:29;24.02;;;12.15;;
32734;SDS011;19112;51.076;3.706;2023-05-08T09:08:59;26.50;;;11.75;;
32734;SDS011;19112;51.076;3.706;2023-05-08T09:11:27;23.00;;;11.18;;
32734;SDS011;19112;51.076;3.706;2023-05-08T09:13:56;23.33;;;11.40;;
32734;SDS011;19112;51.076;3.706;2023-05-08T09:16:23;23.23;;;10.77;;
32734;SDS011;19112;51.076;3.706;2023-05-08T09:18:49;27.35;;;12.05;;
32734;SDS011;19112;51.076;3.706;2023-05-08T09:21:15;25.55;;;10.88;;
32734;SDS011;19112;51.076;3.706;2023-05-08T09:26:35;22.25;;;9.38;;
32734;SDS011;19112;51.076;3.706;2023-05-08T09:31:44;21.25;;;10.15;;
32734;SDS011;19112;51.076;3.706;2023-05-08T09:34:24;22.13;;;10.32;;
32734;SDS011;19112;51.076;3.706;2023-05-08T09:39:30;25.63;;;11.05;;
32734;SDS011;19112;51.076;3.706;2023-05-08T09:41:59;21.80;;;10.07;;
32734;SDS011;19112;51.076;3.706;2023-05-08T09:44:27;23.45;;;11.23;;
32734;SDS011;19112;51.076;3.706;2023-05-08T09:47:10;23.40;;;10.48;;
32734;SDS011;19112;51.076;3.706;2023-05-08T09:49:38;23.60;;;10.57;;
32734;SDS011;19112;51.076;3.706;2023-05-08T09:52:20;21.40;;;9.95;;
32734;SDS011;19112;51.076;3.706;2023-05-08T09:54:57;23.50;;;10.70;;
32734;SDS011;19112;51.076;3.706;2023-05-08T09:57:29;20.33;;;9.75;;
32734;SDS011;19112;51.076;3.706;2023-05-08T10:00:00;24.17;;;11.43;;
32734;SDS011;19112;51.076;3.706;2023-05-08T10:02:31;24.15;;;10.68;;
32734;SDS011;19112;51.076;3.706;2023-05-08T10:04:58;24.35;;;11.35;;
32734;SDS011;19112;51.076;3.706;2023-05-08T10:07:28;22.67;;;11.10;;
32734;SDS011;19112;51.076;3.706;2023-05-08T10:10:03;23.00;;;11.20;;
32734;SDS011;19112;51.076;3.706;2023-05-08T10:12:30;22.90;;;10.75;;
32734;SDS011;19112;51.076;3.706;2023-05-08T10:14:57;21.63;;;10.40;;
32734;SDS011;19112;51.076;3.706;2023-05-08T10:17:24;24.77;;;10.77;;
32734;SDS011;19112;51.076;3.706;2023-05-08T10:19:59;24.05;;;11.25;;
32734;SDS011;19112;51.076;3.706;2023-05-08T10:22:34;20.35;;;9.75;;
32734;SDS011;19112;51.076;3.706;2023-05-08T10:25:02;21.33;;;10.85;;
32734;SDS011;19112;51.076;3.706;2023-05-08T10:27:40;21.42;;;10.40;;
32734;SDS011;19112;51.076;3.706;2023-05-08T10:30:20;22.65;;;10.95;;
32734;SDS011;19112;51.076;3.706;2023-05-08T10:32:50;22.70;;;11.02;;
32734;SDS011;19112;51.076;3.706;2023-05-08T10:35:19;22.17;;;10.48;;
32734;SDS011;19112;51.076;3.706;2023-05-08T10:37:47;22.55;;;9.85;;
32734;SDS011;19112;51.076;3.706;2023-05-08T10:40:14;23.55;;;11.20;;
32734;SDS011;19112;51.076;3.706;2023-05-08T10:42:42;22.65;;;10.70;;
32734;SDS011;19112;51.076;3.706;2023-05-08T10:45:09;25.30;;;11.30;;
32734;SDS011;19112;51.076;3.706;2023-05-08T10:50:38;24.77;;;11.85;;
32734;SDS011;19112;51.076;3.706;2023-05-08T10:53:39;24.48;;;11.93;;
32734;SDS011;19112;51.076;3.706;2023-05-08T10:56:27;26.52;;;13.35;;
32734;SDS011;19112;51.076;3.706;2023-05-08T10:58:57;25.05;;;12.27;;
32734;SDS011;19112;51.076;3.706;2023-05-08T11:01:23;27.30;;;13.13;;
32734;SDS011;19112;51.076;3.706;2023-05-08T11:03:50;25.13;;;12.80;;
32734;SDS011;19112;51.076;3.706;2023-05-08T11:09:19;27.77;;;13.95;;
32734;SDS011;19112;51.076;3.706;2023-05-08T11:14:54;29.25;;;14.57;;
32734;SDS011;19112;51.076;3.706;2023-05-08T11:17:30;28.52;;;14.30;;
32734;SDS011;19112;51.076;3.706;2023-05-08T11:19:58;31.70;;;15.15;;
32734;SDS011;19112;51.076;3.706;2023-05-08T11:22:34;36.20;;;18.25;;
32734;SDS011;19112;51.076;3.706;2023-05-08T11:27:39;31.60;;;16.60;;
32734;SDS011;19112;51.076;3.706;2023-05-08T11:30:37;28.75;;;14.27;;
32734;SDS011;19112;51.076;3.706;2023-05-08T11:35:45;28.45;;;13.85;;
32734;SDS011;19112;51.076;3.706;2023-05-08T11:46:05;24.65;;;12.27;;
32734;SDS011;19112;51.076;3.706;2023-05-08T11:48:39;23.92;;;11.93;;
32734;SDS011;19112;51.076;3.706;2023-05-08T11:51:05;24.92;;;12.35;;
32734;SDS011;19112;51.076;3.706;2023-05-08T11:53:31;26.70;;;12.40;;
32734;SDS011;19112;51.076;3.706;2023-05-08T11:55:59;26.23;;;12.50;;
32734;SDS011;19112;51.076;3.706;2023-05-08T11:58:25;26.23;;;12.52;;
32734;SDS011;19112;51.076;3.706;2023-05-08T12:00:51;26.05;;;13.23;;
32734;SDS011;19112;51.076;3.706;2023-05-08T12:03:19;28.00;;;13.77;;
32734;SDS011;19112;51.076;3.706;2023-05-08T12:05:54;29.10;;;14.50;;
32734;SDS011;19112;51.076;3.706;2023-05-08T12:08:22;27.50;;;13.52;;
32734;SDS011;19112;51.076;3.706;2023-05-08T12:10:52;26.63;;;12.95;;
32734;SDS011;19112;51.076;3.706;2023-05-08T12:13:23;29.15;;;13.65;;
32734;SDS011;19112;51.076;3.706;2023-05-08T12:15:57;27.77;;;13.65;;
32734;SDS011;19112;51.076;3.706;2023-05-08T12:18:25;30.08;;;15.02;;
32734;SDS011;19112;51.076;3.706;2023-05-08T12:20:59;30.98;;;15.40;;
32734;SDS011;19112;51.076;3.706;2023-05-08T12:23:26;31.27;;;14.23;;
32734;SDS011;19112;51.076;3.706;2023-05-08T12:25:53;31.02;;;16.13;;
32734;SDS011;19112;51.076;3.706;2023-05-08T12:28:22;30.92;;;16.15;;
32734;SDS011;19112;51.076;3.706;2023-05-08T12:30:48;34.58;;;17.25;;
32734;SDS011;19112;51.076;3.706;2023-05-08T12:33:14;34.53;;;19.00;;
32734;SDS011;19112;51.076;3.706;2023-05-08T12:35:41;32.42;;;16.73;;
32734;SDS011;19112;51.076;3.706;2023-05-08T12:38:07;32.17;;;17.33;;
32734;SDS011;19112;51.076;3.706;2023-05-08T12:40:39;35.15;;;18.38;;
32734;SDS011;19112;51.076;3.706;2023-05-08T12:43:10;39.58;;;19.42;;
32734;SDS011;19112;51.076;3.706;2023-05-08T12:45:37;34.85;;;18.73;;
32734;SDS011;19112;51.076;3.706;2023-05-08T12:48:05;32.53;;;18.27;;
32734;SDS011;19112;51.076;3.706;2023-05-08T12:50:37;33.38;;;18.25;;
32734;SDS011;19112;51.076;3.706;2023-05-08T12:53:09;36.35;;;17.70;;
32734;SDS011;19112;51.076;3.706;2023-05-08T12:55:50;32.58;;;17.63;;
32734;SDS011;19112;51.076;3.706;2023-05-08T12:58:18;36.92;;;19.50;;
32734;SDS011;19112;51.076;3.706;2023-05-08T13:00:49;34.67;;;18.27;;
32734;SDS011;19112;51.076;3.706;2023-05-08T13:03:23;34.65;;;18.40;;
32734;SDS011;19112;51.076;3.706;2023-05-08T13:05:53;32.67;;;16.20;;
32734;SDS011;19112;51.076;3.706;2023-05-08T13:08:31;33.42;;;17.35;;
32734;SDS011;19112;51.076;3.706;2023-05-08T13:10:58;33.15;;;17.13;;
32734;SDS011;19112;51.076;3.706;2023-05-08T13:13:25;32.95;;;16.73;;
32734;SDS011;19112;51.076;3.706;2023-05-08T13:15:54;32.08;;;16.48;;
32734;SDS011;19112;51.076;3.706;2023-05-08T13:18:22;32.95;;;16.27;;
32734;SDS011;19112;51.076;3.706;2023-05-08T13:20:51;32.65;;;15.98;;
32734;SDS011;19112;51.076;3.706;2023-05-08T13:23:18;29.00;;;16.05;;
32734;SDS011;19112;51.076;3.706;2023-05-08T13:25:44;28.63;;;15.52;;
32734;SDS011;19112;51.076;3.706;2023-05-08T13:28:10;30.15;;;15.88;;
32734;SDS011;19112;51.076;3.706;2023-05-08T13:30:36;30.52;;;16.08;;
32734;SDS011;19112;51.076;3.706;2023-05-08T13:33:03;30.15;;;15.90;;
32734;SDS011;19112;51.076;3.706;2023-05-08T13:35:29;32.20;;;16.00;;
32734;SDS011;19112;51.076;3.706;2023-05-08T13:37:56;28.63;;;15.63;;
32734;SDS011;19112;51.076;3.706;2023-05-08T13:40:23;30.20;;;16.25;;
32734;SDS011;19112;51.076;3.706;2023-05-08T13:42:49;31.80;;;15.60;;
32734;SDS011;19112;51.076;3.706;2023-05-08T13:45:15;28.50;;;14.50;;
32734;SDS011;19112;51.076;3.706;2023-05-08T13:47:43;34.28;;;15.50;;
32734;SDS011;19112;51.076;3.706;2023-05-08T13:50:10;29.70;;;15.52;;
32734;SDS011;19112;51.076;3.706;2023-05-08T13:52:38;30.00;;;16.35;;
32734;SDS011;19112;51.076;3.706;2023-05-08T13:55:05;27.80;;;15.50;;
32734;SDS011;19112;51.076;3.706;2023-05-08T13:57:33;29.00;;;15.15;;
32734;SDS011;19112;51.076;3.706;2023-05-08T14:00:00;29.52;;;15.68;;
32734;SDS011;19112;51.076;3.706;2023-05-08T14:02:27;28.43;;;14.90;;
32734;SDS011;19112;51.076;3.706;2023-05-08T14:04:54;27.95;;;14.90;;
32734;SDS011;19112;51.076;3.706;2023-05-08T14:07:20;27.15;;;14.43;;
32734;SDS011;19112;51.076;3.706;2023-05-08T14:09:45;27.85;;;14.88;;
32734;SDS011;19112;51.076;3.706;2023-05-08T14:12:12;29.25;;;15.60;;
32734;SDS011;19112;51.076;3.706;2023-05-08T14:14:38;31.30;;;15.93;;
32734;SDS011;19112;51.076;3.706;2023-05-08T14:17:04;24.48;;;13.77;;
32734;SDS011;19112;51.076;3.706;2023-05-08T14:19:30;26.20;;;14.30;;
32734;SDS011;19112;51.076;3.706;2023-05-08T14:21:56;30.52;;;15.55;;
32734;SDS011;19112;51.076;3.706;2023-05-08T14:24:22;27.30;;;15.20;;
32734;SDS011;19112;51.076;3.706;2023-05-08T14:26:48;26.60;;;14.75;;
32734;SDS011;19112;51.076;3.706;2023-05-08T14:29:14;25.42;;;13.27;;
32734;SDS011;19112;51.076;3.706;2023-05-08T14:31:41;26.33;;;14.02;;
32734;SDS011;19112;51.076;3.706;2023-05-08T14:34:07;28.40;;;14.63;;
32734;SDS011;19112;51.076;3.706;2023-05-08T14:36:32;25.15;;;13.30;;
32734;SDS011;19112;51.076;3.706;2023-05-08T14:38:58;27.05;;;13.15;;
32734;SDS011;19112;51.076;3.706;2023-05-08T14:41:28;22.80;;;12.05;;
32734;SDS011;19112;51.076;3.706;2023-05-08T14:43:55;23.35;;;12.82;;
32734;SDS011;19112;51.076;3.706;2023-05-08T14:46:22;25.92;;;14.05;;
32734;SDS011;19112;51.076;3.706;2023-05-08T14:48:49;26.27;;;14.07;;
32734;SDS011;19112;51.076;3.706;2023-05-08T14:51:15;28.35;;;13.60;;
32734;SDS011;19112;51.076;3.706;2023-05-08T14:53:43;28.58;;;13.02;;
32734;SDS011;19112;51.076;3.706;2023-05-08T14:56:09;26.65;;;14.07;;
32734;SDS011;19112;51.076;3.706;2023-05-08T14:58:37;27.30;;;14.00;;
32734;SDS011;19112;51.076;3.706;2023-05-08T15:01:04;26.92;;;13.50;;
32734;SDS011;19112;51.076;3.706;2023-05-08T15:03:30;27.35;;;14.27;;
32734;SDS011;19112;51.076;3.706;2023-05-08T15:05:55;24.85;;;12.88;;
32734;SDS011;19112;51.076;3.706;2023-05-08T15:08:21;23.02;;;12.05;;
32734;SDS011;19112;51.076;3.706;2023-05-08T15:10:47;24.35;;;12.27;;
32734;SDS011;19112;51.076;3.706;2023-05-08T15:13:13;22.23;;;11.38;;
32734;SDS011;19112;51.076;3.706;2023-05-08T15:15:39;23.67;;;10.95;;
32734;SDS011;19112;51.076;3.706;2023-05-08T15:18:05;25.58;;;12.05;;
32734;SDS011;19112;51.076;3.706;2023-05-08T15:20:30;20.00;;;10.50;;
32734;SDS011;19112;51.076;3.706;2023-05-08T15:22:56;22.85;;;11.63;;
32734;SDS011;19112;51.076;3.706;2023-05-08T15:25:22;25.67;;;11.38;;
32734;SDS011;19112;51.076;3.706;2023-05-08T15:27:50;22.05;;;10.32;;
32734;SDS011;19112;51.076;3.706;2023-05-08T15:30:19;25.20;;;11.23;;
32734;SDS011;19112;51.076;3.706;2023-05-08T15:32:46;20.92;;;10.10;;